Time;durP1;ratioP1;P1;durP2;ratioP2;P2;SDS_P1;SDS_P2;PMS_P1;PMS_P2;Temp;Humidity;BMP_temperature;BMP_pressure;BME280_temperature;BME280_humidity;BME280_pressure;Samples;Min_cycle;Max_cycle;Signal;HPM_P1;HPM_P2
2021/10/02 00:41:37;;;;;;;19.20;5.80;;;17.20;90.90;;;;;;5023626;28;20156;-61
2021/10/02 00:46:47;;;;;;;14.57;5.85;;;17.20;90.90;;;;;;5027097;28;20113;-62
2021/10/02 00:49:12;;;;;;;14.05;5.60;;;17.20;90.90;;;;;;5014138;28;20120;-61
2021/10/02 00:51:39;;;;;;;12.52;6.43;;;17.10;90.80;;;;;;5018942;28;20017;-61
2021/10/02 00:54:05;;;;;;;16.85;5.88;;;17.20;90.90;;;;;;4998180;28;20014;-62
2021/10/02 00:56:31;;;;;;;12.95;5.68;;;17.20;90.90;;;;;;5006403;28;20466;-62
2021/10/02 00:58:56;;;;;;;17.08;6.38;;;17.20;91.00;;;;;;5024724;28;20052;-61
2021/10/02 01:01:34;;;;;;;12.23;6.68;;;17.10;91.00;;;;;;5011091;28;20481;-62
2021/10/02 01:04:30;;;;;;;13.45;6.55;;;17.10;91.00;;;;;;5026661;28;20112;-61
2021/10/02 01:07:26;;;;;;;14.87;7.33;;;17.20;91.10;;;;;;5010921;28;20359;-61
2021/10/02 01:10:20;;;;;;;11.75;6.75;;;17.20;91.10;;;;;;5015825;28;20363;-61
2021/10/02 01:13:06;;;;;;;13.10;6.30;;;17.10;91.10;;;;;;5026375;28;20033;-62
2021/10/02 01:16:07;;;;;;;14.98;7.35;;;17.10;91.20;;;;;;5022973;28;20041;-61
2021/10/02 01:18:37;;;;;;;14.75;7.38;;;17.10;91.20;;;;;;5020494;28;20674;-61
2021/10/02 01:21:34;;;;;;;12.77;6.68;;;17.10;91.20;;;;;;5026192;28;20079;-62
2021/10/02 01:24:14;;;;;;;14.48;6.90;;;17.10;91.20;;;;;;5016413;28;20348;-62
2021/10/02 01:27:07;;;;;;;15.40;7.28;;;17.10;91.20;;;;;;5023356;28;20029;-61
2021/10/02 01:29:33;;;;;;;16.42;7.45;;;17.10;91.20;;;;;;5010801;28;20386;-61
2021/10/02 01:32:12;;;;;;;13.60;7.15;;;17.10;91.30;;;;;;5022078;28;20037;-61
2021/10/02 01:47:53;;;;;;;9.27;6.85;;;17.00;91.40;;;;;;5005906;28;20119;-61
2021/10/02 01:50:27;;;;;;;16.38;7.43;;;17.00;91.50;;;;;;5024909;28;20080;-61
2021/10/02 01:52:53;;;;;;;14.98;8.50;;;17.00;91.40;;;;;;5025699;28;20029;-61
2021/10/02 01:55:19;;;;;;;10.77;7.80;;;17.10;91.40;;;;;;5009660;28;20484;-61
2021/10/02 01:57:47;;;;;;;16.60;7.20;;;17.00;91.40;;;;;;5003668;28;20029;-61
2021/10/02 02:00:13;;;;;;;12.27;7.25;;;17.00;91.40;;;;;;5002608;28;20072;-61
2021/10/02 02:02:40;;;;;;;14.73;7.32;;;17.00;91.30;;;;;;5006955;28;20269;-61
2021/10/02 02:05:09;;;;;;;11.48;7.57;;;17.00;91.40;;;;;;5001502;28;20105;-62
2021/10/02 02:07:36;;;;;;;8.98;6.93;;;17.00;91.40;;;;;;5005879;28;20373;-61
2021/10/02 02:10:02;;;;;;;12.73;7.20;;;17.00;91.30;;;;;;5001597;28;20084;-61
2021/10/02 02:12:32;;;;;;;10.38;6.97;;;17.00;91.30;;;;;;5021116;28;20040;-63
2021/10/02 02:15:05;;;;;;;10.32;7.00;;;17.00;91.30;;;;;;5003570;28;20030;-61
2021/10/02 02:17:31;;;;;;;12.63;7.68;;;17.00;91.30;;;;;;5022228;28;20056;-61
2021/10/02 02:19:56;;;;;;;14.40;6.57;;;17.00;91.20;;;;;;5026492;28;20036;-61
2021/10/02 02:22:22;;;;;;;10.82;7.43;;;17.00;91.30;;;;;;5008506;28;20504;-61
2021/10/02 02:24:48;;;;;;;13.10;7.22;;;16.90;91.20;;;;;;5009242;28;20109;-61
2021/10/02 02:27:13;;;;;;;9.38;7.32;;;17.00;91.30;;;;;;5023884;28;20124;-61
2021/10/02 02:29:39;;;;;;;11.82;7.18;;;17.00;91.30;;;;;;5021487;28;20393;-61
2021/10/02 02:32:05;;;;;;;13.52;8.25;;;16.90;91.20;;;;;;5014870;28;20029;-61
2021/10/02 02:34:30;;;;;;;15.27;8.70;;;17.00;91.30;;;;;;5025108;28;20484;-61
2021/10/02 02:36:57;;;;;;;17.13;8.80;;;17.00;91.30;;;;;;5025887;28;20391;-62
2021/10/02 02:39:23;;;;;;;12.18;8.32;;;16.90;91.30;;;;;;5024174;28;20037;-61
2021/10/02 02:41:49;;;;;;;11.02;8.25;;;17.00;91.30;;;;;;5027431;28;20037;-61
2021/10/02 02:44:14;;;;;;;12.18;8.25;;;16.90;91.30;;;;;;5014458;28;20385;-61
2021/10/02 02:46:40;;;;;;;11.98;7.93;;;16.90;91.30;;;;;;5018197;28;20048;-61
2021/10/02 02:49:40;;;;;;;14.30;7.57;;;17.00;91.30;;;;;;4995598;28;20557;-61
2021/10/02 02:52:10;;;;;;;13.65;7.80;;;17.00;91.20;;;;;;5028512;28;20041;-61
2021/10/02 02:54:46;;;;;;;12.40;8.00;;;17.00;91.30;;;;;;5015428;28;20477;-61
2021/10/02 02:57:20;;;;;;;13.80;7.50;;;17.00;91.30;;;;;;5024979;28;20061;-61
2021/10/02 03:00:04;;;;;;;10.55;7.90;;;17.00;91.20;;;;;;5018007;28;20477;-61
2021/10/02 03:02:29;;;;;;;11.15;8.07;;;17.00;91.20;;;;;;5020902;28;20076;-61
2021/10/02 03:04:55;;;;;;;12.52;9.23;;;17.00;91.20;;;;;;5001836;28;20091;-61
2021/10/02 03:07:21;;;;;;;14.05;7.88;;;17.00;91.20;;;;;;4988091;28;20030;-61
2021/10/02 03:09:47;;;;;;;12.27;7.68;;;16.90;91.20;;;;;;5016219;28;20482;-62
2021/10/02 03:12:13;;;;;;;15.15;7.88;;;16.90;91.20;;;;;;5003635;28;20044;-62
2021/10/02 03:14:40;;;;;;;12.98;8.38;;;17.00;91.30;;;;;;5018824;28;20034;-61
2021/10/02 03:17:06;;;;;;;14.80;8.02;;;17.00;91.20;;;;;;5005572;28;20418;-62
2021/10/02 03:19:31;;;;;;;14.05;7.90;;;17.00;91.20;;;;;;5008819;28;20055;-62
2021/10/02 03:21:57;;;;;;;11.98;8.05;;;17.00;91.30;;;;;;5019129;28;20033;-61
2021/10/02 03:24:23;;;;;;;14.07;8.60;;;17.00;91.30;;;;;;5001478;28;20061;-61
2021/10/02 03:26:50;;;;;;;12.50;8.38;;;17.00;91.20;;;;;;5018802;28;20042;-61
2021/10/02 03:29:15;;;;;;;12.18;7.45;;;16.90;91.20;;;;;;5023723;28;20397;-61
2021/10/02 03:31:41;;;;;;;13.60;8.27;;;16.90;91.30;;;;;;5025908;28;20485;-62
2021/10/02 03:34:06;;;;;;;15.40;8.52;;;17.00;91.30;;;;;;5020767;28;20038;-61
2021/10/02 03:36:32;;;;;;;11.88;7.90;;;17.00;91.30;;;;;;5022906;28;20554;-62
2021/10/02 03:38:57;;;;;;;13.15;8.45;;;16.90;91.30;;;;;;5008923;28;20033;-62
2021/10/02 03:41:23;;;;;;;14.35;8.82;;;16.90;91.40;;;;;;5025600;28;20036;-62
2021/10/02 03:43:49;;;;;;;11.00;7.95;;;16.90;91.40;;;;;;5022396;28;20034;-63
2021/10/02 03:46:14;;;;;;;14.90;8.80;;;16.90;91.50;;;;;;5017397;28;20414;-62
2021/10/02 03:48:39;;;;;;;13.65;8.77;;;16.90;91.60;;;;;;5022214;28;20351;-61
2021/10/02 03:51:05;;;;;;;14.80;9.18;;;16.90;91.70;;;;;;5025957;28;20044;-61
2021/10/02 03:53:31;;;;;;;16.85;9.60;;;16.80;91.70;;;;;;5022840;28;20030;-61
2021/10/02 03:55:59;;;;;;;13.55;9.18;;;16.90;91.70;;;;;;5013595;28;20048;-62
2021/10/02 03:58:25;;;;;;;15.65;8.90;;;16.80;91.70;;;;;;5000492;28;20072;-61
2021/10/02 04:00:51;;;;;;;12.40;9.15;;;16.80;91.80;;;;;;5017545;28;20463;-61
2021/10/02 04:03:16;;;;;;;13.45;8.65;;;16.80;91.80;;;;;;5016288;28;20563;-61
2021/10/02 04:05:42;;;;;;;15.10;9.95;;;16.80;91.80;;;;;;5022268;28;20022;-61
2021/10/02 04:08:07;;;;;;;11.57;8.32;;;16.80;91.80;;;;;;5016731;28;20026;-61
2021/10/02 04:10:33;;;;;;;12.82;9.07;;;16.80;91.90;;;;;;5009973;28;20438;-62
2021/10/02 04:12:58;;;;;;;14.98;9.38;;;16.80;91.80;;;;;;5013843;28;20046;-62
2021/10/02 04:15:24;;;;;;;14.90;8.98;;;16.70;91.90;;;;;;5010127;28;20033;-62
2021/10/02 04:17:50;;;;;;;15.52;9.23;;;16.70;91.90;;;;;;5019630;28;20033;-62
2021/10/02 04:20:15;;;;;;;13.57;9.05;;;16.70;91.90;;;;;;5019058;28;20040;-61
2021/10/02 04:22:41;;;;;;;11.18;8.93;;;16.70;91.90;;;;;;5020534;28;21233;-61
2021/10/02 04:25:07;;;;;;;11.38;8.68;;;16.70;92.00;;;;;;5022237;28;20064;-61
2021/10/02 04:27:32;;;;;;;13.73;9.63;;;16.60;91.90;;;;;;5021730;28;20630;-62
2021/10/02 04:29:58;;;;;;;13.63;9.77;;;16.60;92.00;;;;;;5025128;28;20488;-60
2021/10/02 04:32:23;;;;;;;13.07;9.32;;;16.60;92.00;;;;;;5021116;28;20042;-61
2021/10/02 04:34:49;;;;;;;14.90;9.05;;;16.60;92.00;;;;;;5026212;28;20068;-61
2021/10/02 04:37:14;;;;;;;12.73;8.90;;;16.60;92.10;;;;;;5022271;28;20152;-61
2021/10/02 04:39:40;;;;;;;14.35;10.13;;;16.60;92.10;;;;;;5027234;28;20083;-62
2021/10/02 04:42:05;;;;;;;12.77;9.00;;;16.60;92.10;;;;;;5026394;28;20101;-61
2021/10/02 04:44:32;;;;;;;12.88;9.50;;;16.60;92.10;;;;;;5024306;28;20421;-61
2021/10/02 04:46:57;;;;;;;12.07;9.00;;;16.60;92.10;;;;;;5023079;28;20045;-61
2021/10/02 04:49:23;;;;;;;13.10;9.40;;;16.60;92.10;;;;;;5020074;28;20064;-61
2021/10/02 04:51:49;;;;;;;14.95;8.90;;;16.60;92.20;;;;;;5018279;28;20497;-62
2021/10/02 04:54:15;;;;;;;15.18;8.90;;;16.50;92.20;;;;;;5004261;28;20472;-61
2021/10/02 04:56:40;;;;;;;13.68;8.90;;;16.60;92.30;;;;;;5024074;28;20091;-61
2021/10/02 04:59:06;;;;;;;14.10;9.50;;;16.50;92.30;;;;;;5021617;28;20263;-62
2021/10/02 05:01:31;;;;;;;10.93;8.45;;;16.50;92.30;;;;;;5020735;28;20033;-62
2021/10/02 05:03:58;;;;;;;12.05;8.18;;;16.50;92.30;;;;;;5020276;28;20033;-61
2021/10/02 05:06:24;;;;;;;9.98;8.15;;;16.50;92.30;;;;;;5026330;28;20040;-61
2021/10/02 05:08:50;;;;;;;10.93;8.43;;;16.50;92.30;;;;;;5021767;28;20185;-61
2021/10/02 05:11:16;;;;;;;12.82;9.07;;;16.50;92.40;;;;;;5004433;28;20037;-61
2021/10/02 05:13:41;;;;;;;11.40;8.90;;;16.50;92.40;;;;;;5008231;28;20033;-61
2021/10/02 05:16:07;;;;;;;12.95;8.13;;;16.50;92.30;;;;;;5021054;28;20101;-61
2021/10/02 05:18:32;;;;;;;11.88;8.77;;;16.50;92.40;;;;;;5026631;28;20041;-61
2021/10/02 05:20:58;;;;;;;11.93;8.65;;;16.50;92.40;;;;;;5026260;28;20072;-61
2021/10/02 05:23:24;;;;;;;14.57;8.85;;;16.50;92.40;;;;;;5024947;28;20129;-61
2021/10/02 05:25:49;;;;;;;10.80;7.47;;;16.40;92.40;;;;;;5024115;28;20124;-62
2021/10/02 05:28:15;;;;;;;9.43;7.75;;;16.50;92.40;;;;;;5020462;28;20182;-61
2021/10/02 05:30:40;;;;;;;11.88;8.52;;;16.50;92.40;;;;;;5028023;28;20021;-61
2021/10/02 05:33:06;;;;;;;12.57;7.78;;;16.50;92.50;;;;;;4989560;28;20028;-61
2021/10/02 05:35:32;;;;;;;11.25;8.77;;;16.40;92.50;;;;;;5024032;28;20407;-61
2021/10/02 05:37:58;;;;;;;9.93;7.82;;;16.40;92.50;;;;;;5023380;28;20041;-61
2021/10/02 05:40:23;;;;;;;9.82;7.97;;;16.40;92.40;;;;;;5023371;28;20033;-62
2021/10/02 05:42:49;;;;;;;10.75;7.78;;;16.40;92.40;;;;;;5018720;28;20109;-62
2021/10/02 05:45:14;;;;;;;10.50;8.15;;;16.40;92.50;;;;;;5024105;28;20042;-62
2021/10/02 05:47:40;;;;;;;13.00;8.25;;;16.40;92.50;;;;;;5025001;28;20021;-61
2021/10/02 05:50:06;;;;;;;13.55;8.57;;;16.50;92.50;;;;;;5023683;28;20079;-61
2021/10/02 05:52:31;;;;;;;13.48;8.43;;;16.40;92.50;;;;;;5017923;28;20026;-62
2021/10/02 05:54:57;;;;;;;11.45;7.72;;;16.40;92.50;;;;;;5028080;28;20068;-61
2021/10/02 05:57:22;;;;;;;11.73;8.00;;;16.40;92.50;;;;;;5018640;28;20442;-61
2021/10/02 05:59:48;;;;;;;10.38;7.28;;;16.40;92.60;;;;;;5026948;28;20029;-62
2021/10/02 06:02:13;;;;;;;10.02;7.63;;;16.40;92.60;;;;;;5026118;28;20064;-61
2021/10/02 06:04:39;;;;;;;10.00;7.70;;;16.40;92.60;;;;;;5025680;28;20488;-61
2021/10/02 06:07:05;;;;;;;10.00;7.57;;;16.40;92.50;;;;;;5025070;28;20545;-61
2021/10/02 06:09:30;;;;;;;10.18;7.43;;;16.40;92.60;;;;;;5024768;28;20087;-61
2021/10/02 06:11:56;;;;;;;10.07;7.90;;;16.40;92.60;;;;;;5024685;28;20570;-61
2021/10/02 06:14:21;;;;;;;12.35;7.20;;;16.40;92.60;;;;;;5016614;28;20040;-61
2021/10/02 06:16:47;;;;;;;13.70;7.53;;;16.40;92.60;;;;;;5024569;28;20029;-61
2021/10/02 06:19:12;;;;;;;9.02;7.65;;;16.40;92.60;;;;;;5026207;28;20053;-61
2021/10/02 06:21:38;;;;;;;13.57;8.35;;;16.40;92.60;;;;;;5019942;28;20101;-61
2021/10/02 06:24:04;;;;;;;9.98;7.53;;;16.50;92.60;;;;;;5010312;28;20113;-62
2021/10/02 06:26:32;;;;;;;10.15;7.35;;;16.50;92.60;;;;;;5022169;28;20125;-61
2021/10/02 06:28:58;;;;;;;14.45;7.70;;;16.40;92.50;;;;;;5016332;28;20029;-62
2021/10/02 06:31:27;;;;;;;13.73;7.60;;;16.50;92.60;;;;;;5014541;28;20143;-62
2021/10/02 06:33:53;;;;;;;11.10;7.15;;;16.50;92.60;;;;;;4983387;28;20099;-62
2021/10/02 06:36:18;;;;;;;12.25;8.10;;;16.50;92.60;;;;;;5015712;28;20029;-61
2021/10/02 06:38:44;;;;;;;13.52;7.55;;;16.50;92.70;;;;;;5017097;28;20172;-61
2021/10/02 06:41:09;;;;;;;13.35;8.02;;;16.50;92.60;;;;;;5001039;28;20038;-62
2021/10/02 06:43:38;;;;;;;12.90;7.18;;;16.50;92.60;;;;;;5015166;28;20034;-61
2021/10/02 06:46:04;;;;;;;10.13;7.13;;;16.50;92.60;;;;;;5008734;28;20485;-61
2021/10/02 06:48:31;;;;;;;9.80;6.88;;;16.50;92.60;;;;;;5019243;28;20040;-61
2021/10/02 06:50:56;;;;;;;10.80;7.03;;;16.60;92.70;;;;;;5007747;28;20030;-62
2021/10/02 06:53:22;;;;;;;14.10;6.82;;;16.50;92.70;;;;;;4996510;28;20033;-61
2021/10/02 06:55:47;;;;;;;14.02;7.32;;;16.50;92.60;;;;;;5019335;28;20090;-61
2021/10/02 06:58:13;;;;;;;11.07;7.60;;;16.50;92.50;;;;;;5021445;28;20021;-61
2021/10/02 07:00:38;;;;;;;11.43;6.60;;;16.60;92.50;;;;;;5021523;28;20033;-62
2021/10/02 07:03:05;;;;;;;11.85;6.68;;;16.60;92.40;;;;;;5020295;28;20065;-62
2021/10/02 07:05:30;;;;;;;14.13;6.53;;;16.60;92.40;;;;;;5023464;28;20030;-61
2021/10/02 07:07:56;;;;;;;13.45;8.00;;;16.70;92.40;;;;;;5024587;28;20124;-60
2021/10/02 07:10:21;;;;;;;12.57;7.07;;;16.60;92.50;;;;;;5022327;28;20366;-61
2021/10/02 07:12:50;;;;;;;9.77;7.05;;;16.60;92.60;;;;;;5025292;28;20053;-61
2021/10/02 07:15:16;;;;;;;9.35;7.00;;;16.60;92.60;;;;;;5021201;28;20104;-62
2021/10/02 07:17:42;;;;;;;12.38;7.18;;;16.60;92.60;;;;;;5021298;28;20156;-62
2021/10/02 07:20:08;;;;;;;10.85;7.38;;;16.60;92.60;;;;;;5025597;28;20139;-61
2021/10/02 07:22:38;;;;;;;10.00;6.63;;;16.70;92.80;;;;;;5020490;28;20060;-62
2021/10/02 07:25:05;;;;;;;12.40;6.85;;;16.70;92.90;;;;;;5020490;28;20022;-61
2021/10/02 07:27:30;;;;;;;8.82;7.07;;;16.60;92.90;;;;;;5023912;28;20256;-61
2021/10/02 07:29:56;;;;;;;10.68;7.00;;;16.60;92.90;;;;;;5021774;28;20487;-61
2021/10/02 07:32:23;;;;;;;11.70;6.80;;;16.70;93.00;;;;;;5020087;28;20265;-61
2021/10/02 07:34:50;;;;;;;8.90;6.22;;;16.70;93.00;;;;;;5027157;28;20109;-61
2021/10/02 07:37:15;;;;;;;9.93;6.55;;;16.70;92.90;;;;;;5018793;28;20429;-61
2021/10/02 07:39:41;;;;;;;9.13;6.63;;;16.70;93.10;;;;;;5022041;28;20044;-61
2021/10/02 07:42:06;;;;;;;10.63;6.70;;;16.70;93.10;;;;;;5022566;28;20040;-62
2021/10/02 07:44:32;;;;;;;9.20;6.15;;;16.70;93.10;;;;;;5021814;28;20045;-61
2021/10/02 07:46:57;;;;;;;7.38;6.63;;;16.70;92.90;;;;;;5023482;28;20049;-61
2021/10/02 07:49:23;;;;;;;9.57;6.43;;;16.70;92.90;;;;;;5019947;28;20060;-61
2021/10/02 07:51:49;;;;;;;15.60;6.25;;;16.70;92.90;;;;;;5023016;28;20405;-62
2021/10/02 07:54:15;;;;;;;9.48;6.65;;;16.80;93.00;;;;;;5018248;28;20034;-61
2021/10/02 07:56:42;;;;;;;11.38;6.93;;;16.80;92.90;;;;;;5015703;28;20107;-62
2021/10/02 07:59:08;;;;;;;11.50;5.60;;;16.80;92.90;;;;;;4990841;28;20413;-61
2021/10/02 08:01:34;;;;;;;8.07;6.45;;;16.80;93.00;;;;;;5021525;28;20072;-61
2021/10/02 08:04:02;;;;;;;7.65;5.70;;;16.80;93.00;;;;;;5018154;28;20453;-62
2021/10/02 08:06:30;;;;;;;9.27;6.05;;;16.80;93.50;;;;;;5019811;28;20671;-61
2021/10/02 08:08:55;;;;;;;10.98;5.93;;;16.80;93.90;;;;;;5019931;28;20060;-62
2021/10/02 08:11:21;;;;;;;17.60;6.40;;;16.80;94.10;;;;;;5018178;28;20110;-61
2021/10/02 08:13:46;;;;;;;10.65;6.03;;;16.80;94.20;;;;;;5015883;28;20710;-61
2021/10/02 08:16:12;;;;;;;11.05;5.93;;;16.80;94.40;;;;;;5016748;28;20030;-61
2021/10/02 08:18:38;;;;;;;13.07;5.65;;;16.80;94.40;;;;;;5022767;28;20037;-61
2021/10/02 08:21:05;;;;;;;15.10;6.00;;;16.80;94.40;;;;;;5019500;28;20136;-62
2021/10/02 08:23:30;;;;;;;13.88;5.95;;;16.80;94.40;;;;;;5019624;28;20593;-62
2021/10/02 08:25:56;;;;;;;15.77;6.40;;;16.90;94.50;;;;;;5022866;28;20037;-62
2021/10/02 08:28:21;;;;;;;12.40;6.25;;;16.90;94.40;;;;;;5017398;28;20246;-62
2021/10/02 08:30:47;;;;;;;16.10;6.22;;;16.90;94.40;;;;;;5020779;28;20516;-61
2021/10/02 08:33:13;;;;;;;18.75;6.85;;;16.90;94.40;;;;;;5021436;28;20317;-61
2021/10/02 08:35:39;;;;;;;21.80;6.50;;;17.00;94.50;;;;;;5025564;28;20022;-61
2021/10/02 08:38:05;;;;;;;20.23;6.75;;;17.00;94.60;;;;;;5000268;28;20436;-61
2021/10/02 08:40:31;;;;;;;30.90;7.57;;;17.10;94.50;;;;;;5014563;28;20037;-61
2021/10/02 08:42:56;;;;;;;22.42;7.45;;;17.10;94.60;;;;;;5021189;28;20725;-62
2021/10/02 08:45:22;;;;;;;39.58;9.30;;;17.10;94.60;;;;;;5018203;28;20065;-62
2021/10/02 08:47:47;;;;;;;39.72;8.35;;;17.20;94.50;;;;;;5022948;28;20087;-61
2021/10/02 08:50:17;;;;;;;60.25;10.20;;;17.20;94.50;;;;;;5017910;28;20112;-61
2021/10/02 08:52:42;;;;;;;66.63;12.23;;;17.20;94.30;;;;;;5002024;28;20430;-62
2021/10/02 08:55:09;;;;;;;46.67;9.00;;;17.20;94.30;;;;;;5018596;28;20049;-61
2021/10/02 08:57:35;;;;;;;73.68;11.52;;;17.30;94.40;;;;;;5022664;28;20030;-61
2021/10/02 09:00:01;;;;;;;58.70;10.23;;;17.30;94.50;;;;;;4987327;28;20646;-61
2021/10/02 09:02:26;;;;;;;69.53;10.38;;;17.40;94.40;;;;;;5002932;28;20071;-62
2021/10/02 09:04:52;;;;;;;56.05;10.40;;;17.40;94.10;;;;;;5018982;28;20129;-61
2021/10/02 09:07:19;;;;;;;78.15;11.13;;;17.40;93.70;;;;;;5016657;28;20033;-62
2021/10/02 09:09:45;;;;;;;67.18;10.77;;;17.50;93.50;;;;;;4996263;28;20030;-61
2021/10/02 09:12:11;;;;;;;111.07;12.80;;;17.50;93.40;;;;;;5020738;28;20068;-63
2021/10/02 09:14:37;;;;;;;61.10;11.57;;;17.60;93.30;;;;;;5017458;28;20048;-62
2021/10/02 09:17:03;;;;;;;93.75;12.30;;;17.60;92.90;;;;;;5017940;28;20350;-62
2021/10/02 09:19:28;;;;;;;89.07;11.80;;;17.70;92.90;;;;;;5021378;28;20595;-61
2021/10/02 09:22:01;;;;;;;162.18;15.30;;;17.70;92.60;;;;;;5019179;28;20041;-61
2021/10/02 09:24:47;;;;;;;96.78;13.32;;;17.80;92.70;;;;;;5016270;28;20641;-61
2021/10/02 09:27:16;;;;;;;89.65;11.73;;;17.80;92.70;;;;;;5020468;28;20314;-62
2021/10/02 09:29:46;;;;;;;96.15;12.85;;;17.80;92.30;;;;;;5001880;28;20065;-61
2021/10/02 09:32:13;;;;;;;95.18;12.68;;;17.80;92.30;;;;;;5015396;28;20040;-61
2021/10/02 09:34:59;;;;;;;143.18;16.10;;;17.90;92.20;;;;;;5006988;28;20060;-61
2021/10/02 09:37:28;;;;;;;73.18;11.98;;;17.90;92.30;;;;;;5016702;28;20137;-62
2021/10/02 09:40:10;;;;;;;70.03;11.13;;;17.90;91.90;;;;;;5019245;28;20037;-62
2021/10/02 09:42:41;;;;;;;121.97;13.88;;;18.00;91.80;;;;;;5019984;28;20045;-62
2021/10/02 09:45:13;;;;;;;126.07;15.30;;;18.00;91.80;;;;;;5006532;28;20049;-61
2021/10/02 09:47:39;;;;;;;109.55;14.07;;;18.00;91.80;;;;;;5019315;28;20075;-62
2021/10/02 09:50:12;;;;;;;128.85;15.13;;;18.00;91.60;;;;;;5009848;28;20036;-61
2021/10/02 09:52:40;;;;;;;114.35;13.65;;;18.10;91.60;;;;;;5015447;28;20018;-62
2021/10/02 09:55:22;;;;;;;91.20;13.38;;;18.10;91.60;;;;;;5023493;28;20025;-62
2021/10/02 09:57:50;;;;;;;98.65;14.23;;;18.10;91.40;;;;;;5021518;28;20820;-62
2021/10/02 10:00:18;;;;;;;109.82;15.07;;;18.10;91.40;;;;;;5015698;28;20057;-62
2021/10/02 10:02:43;;;;;;;85.38;12.40;;;18.20;91.30;;;;;;5013200;28;20025;-62
2021/10/02 10:05:13;;;;;;;101.97;12.77;;;18.20;91.30;;;;;;5011807;28;20115;-61
2021/10/02 10:07:38;;;;;;;78.40;13.63;;;18.20;91.10;;;;;;5014919;28;20029;-62
2021/10/02 10:10:12;;;;;;;81.50;12.18;;;18.30;91.00;;;;;;5022246;28;20079;-62
2021/10/02 10:12:39;;;;;;;81.63;12.32;;;18.30;90.70;;;;;;5003617;28;20139;-63
2021/10/02 10:15:05;;;;;;;128.68;15.55;;;18.30;90.50;;;;;;4989850;28;20029;-62
2021/10/02 10:17:32;;;;;;;117.50;15.63;;;18.40;90.50;;;;;;5010506;28;20030;-62
2021/10/02 10:20:04;;;;;;;107.45;15.73;;;18.40;90.60;;;;;;5022608;28;20022;-62
2021/10/02 10:22:31;;;;;;;123.97;15.25;;;18.40;90.50;;;;;;5018350;28;20025;-62
2021/10/02 10:25:03;;;;;;;113.65;14.50;;;18.40;90.30;;;;;;4987560;28;20056;-61
2021/10/02 10:27:42;;;;;;;113.82;13.75;;;18.70;90.30;;;;;;5021603;28;20037;-61
2021/10/02 10:30:22;;;;;;;88.35;13.45;;;18.50;90.10;;;;;;5002984;28;20037;-61
2021/10/02 10:33:08;;;;;;;91.13;12.40;;;18.50;90.10;;;;;;5017940;28;20036;-61
2021/10/02 10:35:42;;;;;;;92.78;14.80;;;18.60;89.70;;;;;;5005789;28;20626;-61
2021/10/02 10:38:09;;;;;;;103.32;14.63;;;18.60;89.50;;;;;;5017731;28;20084;-61
2021/10/02 10:40:34;;;;;;;114.60;15.52;;;18.60;89.50;;;;;;5018589;28;20017;-62
2021/10/02 10:43:00;;;;;;;94.65;13.75;;;18.70;89.30;;;;;;5009964;28;20054;-61
2021/10/02 10:45:26;;;;;;;71.03;11.73;;;18.70;89.00;;;;;;5012511;28;20030;-60
2021/10/02 10:47:52;;;;;;;95.60;12.80;;;18.70;88.60;;;;;;5017525;28;20018;-60
2021/10/02 10:50:17;;;;;;;107.80;14.38;;;18.80;88.70;;;;;;5032018;28;20025;-61
2021/10/02 10:52:43;;;;;;;108.30;14.93;;;18.80;88.70;;;;;;5014584;28;20469;-59
2021/10/02 10:55:17;;;;;;;129.48;14.73;;;18.90;88.70;;;;;;5017151;28;20034;-61
2021/10/02 10:57:45;;;;;;;113.10;14.93;;;18.90;88.80;;;;;;5013127;28;20064;-61
2021/10/02 11:00:21;;;;;;;105.20;14.68;;;18.90;88.70;;;;;;4975815;28;21903;-63
2021/10/02 11:02:52;;;;;;;107.78;15.98;;;19.00;88.50;;;;;;5016603;28;20045;-63
2021/10/02 11:05:36;;;;;;;110.28;15.90;;;19.00;88.20;;;;;;5009737;28;20048;-61
2021/10/02 11:08:06;;;;;;;140.40;15.15;;;19.10;88.40;;;;;;5011848;28;20018;-61
2021/10/02 11:10:41;;;;;;;95.90;13.65;;;19.10;88.10;;;;;;5020188;28;20544;-61
2021/10/02 11:13:11;;;;;;;88.32;13.50;;;19.10;88.10;;;;;;5011183;28;20025;-61
2021/10/02 11:15:36;;;;;;;102.30;14.25;;;19.20;87.60;;;;;;5003809;28;20163;-62
2021/10/02 11:18:02;;;;;;;98.35;13.98;;;19.30;87.40;;;;;;4999939;28;20109;-62
2021/10/02 11:20:29;;;;;;;106.38;14.05;;;19.30;87.40;;;;;;5005836;28;20021;-62
2021/10/02 11:23:33;;;;;;;80.32;13.02;;;19.30;87.20;;;;;;5017121;28;20048;-61
2021/10/02 11:26:11;;;;;;;130.95;15.63;;;19.30;87.20;;;;;;5017790;28;20034;-61
2021/10/02 11:28:37;;;;;;;109.95;15.23;;;19.40;87.20;;;;;;5016403;28;20029;-62
2021/10/02 11:31:10;;;;;;;106.05;13.45;;;19.50;87.20;;;;;;5004804;28;20493;-62
2021/10/02 11:33:50;;;;;;;90.15;13.70;;;19.50;86.80;;;;;;5015998;28;20046;-62
2021/10/02 11:36:31;;;;;;;102.35;15.10;;;19.60;86.30;;;;;;4997408;28;20045;-61
2021/10/02 11:39:26;;;;;;;71.00;10.63;;;19.70;85.90;;;;;;5013900;28;20045;-62
2021/10/02 11:41:52;;;;;;;115.47;15.30;;;19.70;84.90;;;;;;5012851;28;20025;-62
2021/10/02 11:44:30;;;;;;;89.15;13.30;;;19.80;85.40;;;;;;5018461;28;20147;-61
2021/10/02 11:47:32;;;;;;;89.78;13.80;;;19.80;85.30;;;;;;5019689;28;20033;-61
2021/10/02 11:50:12;;;;;;;126.38;15.27;;;19.90;84.40;;;;;;5014633;28;20130;-62
2021/10/02 11:52:43;;;;;;;115.70;15.77;;;20.00;84.00;;;;;;5019665;28;20053;-61
2021/10/02 11:55:34;;;;;;;77.82;11.45;;;20.10;83.80;;;;;;5018564;28;20349;-62
2021/10/02 11:58:11;;;;;;;87.20;13.65;;;20.10;82.10;;;;;;5017702;28;20118;-62
2021/10/02 12:00:44;;;;;;;86.25;11.85;;;20.20;82.50;;;;;;4991781;28;20120;-62
2021/10/02 12:03:10;;;;;;;122.78;14.32;;;20.20;82.10;;;;;;5012247;28;20015;-62
2021/10/02 12:05:35;;;;;;;83.13;12.93;;;20.20;82.30;;;;;;5000811;28;20418;-62
2021/10/02 12:08:01;;;;;;;97.20;12.50;;;20.20;82.00;;;;;;5014602;28;20099;-62
2021/10/02 12:10:27;;;;;;;140.73;17.25;;;20.30;81.20;;;;;;5017657;28;20580;-62
2021/10/02 12:12:52;;;;;;;132.77;13.77;;;20.30;81.40;;;;;;5016777;28;20026;-62
2021/10/02 12:15:31;;;;;;;153.45;18.30;;;20.30;81.40;;;;;;5015686;28;20110;-62
2021/10/02 12:17:56;;;;;;;120.60;15.18;;;20.40;81.60;;;;;;5006830;28;20497;-62
2021/10/02 12:20:36;;;;;;;107.10;14.70;;;20.40;80.90;;;;;;5021407;28;20052;-61
2021/10/02 12:23:06;;;;;;;114.60;13.52;;;20.40;80.90;;;;;;5002111;28;20417;-62
2021/10/02 12:25:32;;;;;;;81.82;11.63;;;20.50;80.20;;;;;;5000207;28;20046;-62
2021/10/02 12:27:57;;;;;;;115.93;13.20;;;20.60;80.20;;;;;;4999822;28;20140;-62
2021/10/02 12:30:23;;;;;;;127.10;13.88;;;20.60;80.40;;;;;;4997839;28;20182;-62
2021/10/02 12:33:02;;;;;;;105.18;13.65;;;20.60;80.20;;;;;;5015970;28;20029;-62
2021/10/02 12:35:28;;;;;;;54.67;11.10;;;20.60;80.00;;;;;;5021558;28;20108;-62
2021/10/02 12:37:56;;;;;;;135.68;15.63;;;20.70;79.40;;;;;;4997206;28;20124;-61
2021/10/02 12:40:22;;;;;;;110.15;13.98;;;20.70;79.90;;;;;;5016403;28;20045;-62
2021/10/02 12:42:53;;;;;;;86.15;12.30;;;20.80;79.90;;;;;;5000003;28;20029;-60
2021/10/02 12:45:23;;;;;;;77.97;11.23;;;20.80;80.20;;;;;;5019766;28;20039;-62
2021/10/02 12:47:53;;;;;;;98.53;11.90;;;20.90;80.20;;;;;;5018059;28;20036;-61
2021/10/02 12:50:26;;;;;;;91.05;11.07;;;20.90;80.00;;;;;;5018117;28;20053;-61
2021/10/02 12:52:52;;;;;;;93.75;11.98;;;20.90;79.80;;;;;;4987094;28;20289;-62
2021/10/02 12:55:18;;;;;;;116.10;12.73;;;21.00;79.70;;;;;;5003008;28;20028;-62
2021/10/02 12:57:44;;;;;;;91.03;11.27;;;21.00;80.10;;;;;;5023695;28;20492;-61
2021/10/02 13:00:11;;;;;;;48.45;9.20;;;21.00;79.80;;;;;;5022931;28;20032;-61
2021/10/02 13:02:46;;;;;;;100.78;12.30;;;21.00;79.60;;;;;;5014869;28;20116;-62
2021/10/02 13:05:12;;;;;;;78.47;11.43;;;21.10;79.70;;;;;;5016477;28;20360;-62
2021/10/02 13:07:42;;;;;;;192.10;21.38;;;21.10;79.70;;;;;;5006139;28;20021;-61
2021/10/02 13:10:34;;;;;;;92.93;11.63;;;21.20;79.50;;;;;;5016828;28;20029;-62
2021/10/02 13:13:26;;;;;;;94.22;12.10;;;21.20;79.50;;;;;;5013086;28;20064;-61
2021/10/02 13:15:53;;;;;;;85.80;11.07;;;21.20;79.30;;;;;;5017935;28;21690;-62
2021/10/02 13:18:18;;;;;;;54.50;9.50;;;21.20;79.10;;;;;;5024619;28;20032;-61
2021/10/02 13:20:47;;;;;;;74.50;10.95;;;21.30;79.10;;;;;;5025837;28;20119;-62
2021/10/02 13:23:13;;;;;;;67.30;9.55;;;21.30;79.10;;;;;;5022185;28;20135;-62
2021/10/02 13:25:46;;;;;;;51.22;10.00;;;21.30;78.70;;;;;;5026145;28;20136;-62
2021/10/02 13:28:30;;;;;;;67.38;10.13;;;21.30;78.50;;;;;;5008161;28;20068;-62
2021/10/02 13:30:58;;;;;;;53.90;9.02;;;21.40;78.50;;;;;;5023985;28;20060;-62
2021/10/02 13:33:23;;;;;;;53.80;8.77;;;21.40;78.20;;;;;;5005662;28;20040;-62
2021/10/02 13:35:56;;;;;;;80.68;10.07;;;21.40;77.70;;;;;;5021073;28;20105;-61
2021/10/02 13:38:36;;;;;;;25.45;6.75;;;21.40;77.60;;;;;;5021760;28;20110;-62